首页
METAR-TAF:

METAR-TAF

机场 :

Rutland Southern Vermont Regional Airport

拉特蘭, 佛蒙特州, 美国

纬度: 43-32N, 经度: 072-57W, 海拔: 240米

当前天气观测

该预报发布于1小时和6分钟前的07:56 UTC
风速6节,风向东南
温度 16°C
湿度 94%
气压 1019 hPa
能見度: 16.1公里
天空无云

METAR: KRUT 270756Z AUTO 14006KT 10SM CLR 16/15 A3009 RMK AO2 SLP183 T01560150 $

时间: 05:02 (09:02 UTC)

预报

该预报发布于3小时和31分钟前的05:31 UTC
预报有效从27日的 06点(UTC)到 28日的 06点(UTC)
风速7节,风向东南
能見度: 10公里
少量云层高于10000英尺
从 27日的 1300点(UTC)
风速6节,风向西转西北
能見度: 10公里
少量云层高于6000英尺

TAF: KRUT 270531Z 2706/2806 14007KT P6SM FEW100 FM271300 29006KT P6SM FEW060

超过4000个机场的气象观测和天气预报(METAR&TAF报告)。

可查询的气象台以黄色和红色小点在地图上表示。

将鼠标移到小点上方,可查看气象台名称。

然后点击查看天气观测和预报。

如需切换地图:点击带黑十字的绿色按钮放大地图;点击带横线的绿色按钮缩小地图;或者点击绿色箭头查看邻近地区的地图。


METAR-TAF: